Time;durP1;ratioP1;P1;durP2;ratioP2;P2;SDS_P1;SDS_P2;PMS_P1;PMS_P2;Temp;Humidity;BMP_temperature;BMP_pressure;BME280_temperature;BME280_humidity;BME280_pressure;Samples;Min_cycle;Max_cycle;Signal;HPM_P1;HPM_P2
2021/07/04 00:00:44;;;;;;;9.75;6.60;;;19.20;93.20;;;;;;5074731;28;20107;-77
2021/07/04 00:03:11;;;;;;;9.57;7.00;;;19.30;93.30;;;;;;5073439;28;20101;-76
2021/07/04 00:05:40;;;;;;;11.60;7.25;;;19.30;93.20;;;;;;5074749;28;20503;-76
2021/07/04 00:08:12;;;;;;;11.15;7.70;;;19.30;93.20;;;;;;5074667;28;20406;-76
2021/07/04 00:10:42;;;;;;;10.13;7.15;;;19.30;93.20;;;;;;5074459;28;20103;-77
2021/07/04 00:13:08;;;;;;;9.48;6.72;;;19.30;93.30;;;;;;5074604;28;20472;-76
2021/07/04 00:15:40;;;;;;;10.13;7.18;;;19.20;93.30;;;;;;5073087;28;20036;-76
2021/07/04 00:18:12;;;;;;;10.45;7.13;;;19.20;93.30;;;;;;5074303;28;20025;-77
2021/07/04 00:20:39;;;;;;;12.05;7.18;;;19.20;93.30;;;;;;5074269;28;20170;-77
2021/07/04 00:23:05;;;;;;;8.02;5.97;;;19.20;93.30;;;;;;5073035;28;20024;-75
2021/07/04 00:25:31;;;;;;;10.57;7.10;;;19.20;93.30;;;;;;5074264;28;20025;-75
2021/07/04 00:27:57;;;;;;;9.30;6.75;;;19.20;93.30;;;;;;5072860;28;20028;-76
2021/07/04 00:30:24;;;;;;;8.50;5.28;;;19.10;93.30;;;;;;5072864;28;20037;-74
2021/07/04 00:32:50;;;;;;;8.88;5.78;;;19.10;93.40;;;;;;5072933;28;20048;-75
2021/07/04 00:35:17;;;;;;;9.60;5.20;;;19.00;93.30;;;;;;5072757;28;20069;-75
2021/07/04 00:37:43;;;;;;;7.47;5.13;;;19.00;93.60;;;;;;5072854;28;20032;-75
2021/07/04 00:40:11;;;;;;;7.82;4.78;;;18.90;93.40;;;;;;5072722;28;20422;-76
2021/07/04 00:42:37;;;;;;;7.63;4.82;;;18.90;93.50;;;;;;5072662;28;20131;-75
2021/07/04 00:45:10;;;;;;;8.38;4.80;;;18.90;93.60;;;;;;5056037;28;20020;-75
2021/07/04 00:47:35;;;;;;;8.77;5.20;;;18.90;93.60;;;;;;5072425;28;20017;-75
2021/07/04 00:50:01;;;;;;;7.85;4.63;;;18.80;93.70;;;;;;5073676;28;20040;-75
2021/07/04 00:52:27;;;;;;;8.55;5.10;;;18.80;93.70;;;;;;5072346;28;20035;-75
2021/07/04 00:54:53;;;;;;;7.00;4.47;;;18.90;93.70;;;;;;5072489;28;20078;-75
2021/07/04 00:57:18;;;;;;;6.82;4.38;;;18.80;93.70;;;;;;5073506;28;20384;-75
2021/07/04 00:59:44;;;;;;;6.60;4.80;;;18.80;93.80;;;;;;5055619;28;20028;-74
2021/07/04 01:02:10;;;;;;;9.50;5.18;;;18.80;93.80;;;;;;5073461;28;20099;-75
2021/07/04 01:04:35;;;;;;;7.50;4.82;;;18.80;93.80;;;;;;5055200;28;20028;-75
2021/07/04 01:07:02;;;;;;;6.88;4.95;;;18.80;93.80;;;;;;5055604;28;20055;-75
2021/07/04 01:09:28;;;;;;;6.85;4.60;;;18.70;93.80;;;;;;5072435;28;20364;-75
2021/07/04 01:11:54;;;;;;;7.28;4.10;;;18.80;93.90;;;;;;5072070;28;20032;-75
2021/07/04 01:14:19;;;;;;;7.85;5.22;;;18.70;93.90;;;;;;5072322;28;20107;-75
2021/07/04 01:16:46;;;;;;;7.88;5.00;;;18.70;93.90;;;;;;5072035;28;20017;-75
2021/07/04 01:19:16;;;;;;;8.13;4.97;;;18.80;94.00;;;;;;5072135;28;20025;-76
2021/07/04 01:21:43;;;;;;;7.82;4.55;;;18.80;94.00;;;;;;5073330;28;20109;-76
2021/07/04 01:24:10;;;;;;;7.78;5.07;;;18.80;94.00;;;;;;5073287;28;20024;-76
2021/07/04 01:26:36;;;;;;;6.82;4.82;;;18.80;94.10;;;;;;5072048;28;20060;-75
2021/07/04 01:29:03;;;;;;;7.68;5.07;;;18.80;94.00;;;;;;5071901;28;20052;-75
2021/07/04 01:31:29;;;;;;;7.68;5.30;;;18.80;94.00;;;;;;5072855;28;20427;-76
2021/07/04 01:33:55;;;;;;;10.43;5.22;;;18.80;94.00;;;;;;5071931;28;20074;-75
2021/07/04 01:36:20;;;;;;;7.22;5.50;;;18.80;94.00;;;;;;5071835;28;20024;-75
2021/07/04 01:38:46;;;;;;;7.20;5.30;;;18.80;94.10;;;;;;5072803;28;20086;-75
2021/07/04 01:41:12;;;;;;;8.02;5.13;;;18.80;94.10;;;;;;5054985;28;20025;-75
2021/07/04 01:43:37;;;;;;;7.80;5.55;;;18.80;94.20;;;;;;5071675;28;20521;-76
2021/07/04 01:46:03;;;;;;;6.82;4.85;;;18.80;94.50;;;;;;5071822;28;20122;-76
2021/07/04 01:48:29;;;;;;;8.18;5.32;;;18.80;94.20;;;;;;5071711;28;20036;-76
2021/07/04 01:50:55;;;;;;;7.97;5.65;;;18.80;94.20;;;;;;5071575;28;20055;-76
2021/07/04 01:53:21;;;;;;;7.32;5.03;;;18.80;94.20;;;;;;5071527;28;20469;-75
2021/07/04 01:55:47;;;;;;;8.38;5.80;;;18.80;94.20;;;;;;5054586;28;20029;-76
2021/07/04 01:58:13;;;;;;;7.95;5.32;;;18.80;94.30;;;;;;5071480;28;20028;-75
2021/07/04 02:00:41;;;;;;;8.35;5.82;;;18.80;94.30;;;;;;5071479;28;20049;-75
2021/07/04 02:03:09;;;;;;;8.40;5.97;;;18.90;94.30;;;;;;5071404;28;20502;-75
2021/07/04 02:05:36;;;;;;;7.90;4.85;;;18.80;94.30;;;;;;5072658;28;20025;-75
2021/07/04 02:08:03;;;;;;;9.00;5.15;;;18.80;94.30;;;;;;5071405;28;20033;-75
2021/07/04 02:10:31;;;;;;;7.10;5.20;;;18.80;94.40;;;;;;5054600;28;20144;-76
2021/07/04 02:12:57;;;;;;;7.75;5.32;;;18.80;94.40;;;;;;5072714;28;20353;-76
2021/07/04 02:15:26;;;;;;;8.13;5.65;;;18.80;94.40;;;;;;5072084;28;20040;-76
2021/07/04 02:17:51;;;;;;;8.10;5.40;;;18.80;94.40;;;;;;5076548;28;20078;-75
2021/07/04 02:20:32;;;;;;;6.57;4.50;;;18.90;94.50;;;;;;5076657;28;20025;-75
2021/07/04 02:23:05;;;;;;;7.30;5.13;;;18.90;94.60;;;;;;5076475;28;20418;-76
2021/07/04 02:25:31;;;;;;;6.28;4.90;;;18.80;94.60;;;;;;5076565;28;20020;-75
2021/07/04 02:27:57;;;;;;;10.38;5.50;;;18.90;94.60;;;;;;5075047;28;20111;-75
2021/07/04 02:30:24;;;;;;;8.00;4.93;;;18.90;94.60;;;;;;5076312;28;20045;-75
2021/07/04 02:32:49;;;;;;;7.25;5.00;;;18.80;94.60;;;;;;5074964;28;20068;-75
2021/07/04 02:35:16;;;;;;;6.80;4.65;;;18.90;94.70;;;;;;5076506;28;20468;-75
2021/07/04 02:37:41;;;;;;;8.80;4.35;;;18.90;94.70;;;;;;5058382;28;20025;-75
2021/07/04 02:40:08;;;;;;;7.05;5.15;;;18.90;94.70;;;;;;5075117;28;20033;-75
2021/07/04 02:42:34;;;;;;;8.35;4.88;;;18.90;94.70;;;;;;5071977;28;20032;-75
2021/07/04 02:45:00;;;;;;;7.15;4.53;;;18.90;94.70;;;;;;5071227;28;20033;-75
2021/07/04 02:47:30;;;;;;;6.72;4.82;;;18.90;95.00;;;;;;5073694;28;20033;-75
2021/07/04 02:49:56;;;;;;;5.47;4.07;;;18.90;94.70;;;;;;5056126;28;20032;-75
2021/07/04 02:52:21;;;;;;;6.90;5.10;;;18.90;94.70;;;;;;5057682;28;20051;-75
2021/07/04 02:54:47;;;;;;;6.95;4.80;;;18.90;94.90;;;;;;5074868;28;20473;-75
2021/07/04 02:57:13;;;;;;;7.20;4.88;;;18.90;94.60;;;;;;5075518;28;20082;-75
2021/07/04 02:59:38;;;;;;;7.28;5.13;;;18.90;94.60;;;;;;5073916;28;20035;-75
2021/07/04 03:02:04;;;;;;;6.95;4.93;;;18.90;94.50;;;;;;5074425;28;20119;-75
2021/07/04 03:04:30;;;;;;;7.80;5.68;;;18.90;94.50;;;;;;5057812;28;20035;-75
2021/07/04 03:06:57;;;;;;;9.65;5.22;;;18.90;94.50;;;;;;5074290;28;20384;-75
2021/07/04 03:09:23;;;;;;;12.65;6.38;;;18.90;94.40;;;;;;5075669;28;20559;-75
2021/07/04 03:11:51;;;;;;;10.00;5.50;;;18.80;94.70;;;;;;5075603;28;20468;-75
2021/07/04 03:14:17;;;;;;;8.02;6.20;;;18.80;94.40;;;;;;5074545;28;20035;-75
2021/07/04 03:16:43;;;;;;;9.18;6.32;;;18.80;94.40;;;;;;5057691;28;20025;-75
2021/07/04 03:19:08;;;;;;;9.15;6.80;;;18.80;94.40;;;;;;5057549;28;20087;-75
2021/07/04 03:21:34;;;;;;;10.07;6.97;;;18.80;94.50;;;;;;5075623;28;20111;-75
2021/07/04 03:24:00;;;;;;;8.68;6.35;;;18.80;94.50;;;;;;5057620;28;20094;-75
2021/07/04 03:26:25;;;;;;;10.10;7.47;;;18.70;94.50;;;;;;5075049;28;20024;-75
2021/07/04 03:28:51;;;;;;;9.32;6.40;;;18.80;94.60;;;;;;5074073;28;20043;-75
2021/07/04 03:31:16;;;;;;;9.35;6.97;;;18.80;94.60;;;;;;5075161;28;20387;-76
2021/07/04 03:33:42;;;;;;;8.95;6.38;;;18.80;94.60;;;;;;5075425;28;20067;-76
2021/07/04 03:36:08;;;;;;;8.73;6.63;;;18.80;94.60;;;;;;5074012;28;20025;-75
2021/07/04 03:38:33;;;;;;;10.85;7.78;;;18.80;94.90;;;;;;5073940;28;20108;-76
2021/07/04 03:40:59;;;;;;;9.55;7.30;;;18.80;94.70;;;;;;5057241;28;20036;-75
2021/07/04 03:43:24;;;;;;;10.70;8.85;;;18.80;94.60;;;;;;5074017;28;20041;-75
2021/07/04 03:45:52;;;;;;;10.98;8.30;;;18.80;94.60;;;;;;5073752;28;20068;-75
2021/07/04 03:48:17;;;;;;;10.38;8.15;;;18.80;94.50;;;;;;5075083;28;20024;-76
2021/07/04 03:50:43;;;;;;;12.70;8.07;;;18.80;94.50;;;;;;5073626;28;20028;-76
2021/07/04 03:53:09;;;;;;;12.90;8.38;;;18.70;94.50;;;;;;5074935;28;20074;-76
2021/07/04 03:55:34;;;;;;;11.60;7.75;;;18.70;94.50;;;;;;5056996;28;20446;-76
2021/07/04 03:58:00;;;;;;;12.48;8.73;;;18.70;94.60;;;;;;5073641;28;20044;-76
2021/07/04 04:00:26;;;;;;;11.50;8.57;;;18.80;94.60;;;;;;5073053;28;20491;-75
2021/07/04 04:02:52;;;;;;;11.07;8.50;;;18.80;94.90;;;;;;5071112;28;20025;-76
2021/07/04 04:05:18;;;;;;;11.90;7.90;;;18.80;94.60;;;;;;5052648;28;20031;-76
2021/07/04 04:07:44;;;;;;;11.30;8.60;;;18.80;94.60;;;;;;5051882;28;20120;-76
2021/07/04 04:10:11;;;;;;;11.77;8.30;;;18.80;94.60;;;;;;5054377;28;20032;-76
2021/07/04 04:12:37;;;;;;;11.13;8.90;;;18.80;94.60;;;;;;5053115;28;20079;-76
2021/07/04 04:15:08;;;;;;;10.38;8.23;;;18.80;94.90;;;;;;5036174;28;20033;-76
2021/07/04 04:17:34;;;;;;;11.15;8.88;;;18.80;94.60;;;;;;5052757;28;20048;-76
2021/07/04 04:20:00;;;;;;;11.80;8.80;;;18.80;94.70;;;;;;5054177;28;20425;-76
2021/07/04 04:22:25;;;;;;;12.10;9.32;;;18.80;94.70;;;;;;5052968;28;20486;-76
2021/07/04 04:24:51;;;;;;;11.40;8.32;;;18.80;94.70;;;;;;5053015;28;20069;-76
2021/07/04 04:27:17;;;;;;;10.68;8.88;;;18.90;94.70;;;;;;5053960;28;20052;-77
2021/07/04 04:29:43;;;;;;;11.10;8.80;;;18.90;94.80;;;;;;5052846;28;20393;-76
2021/07/04 04:32:09;;;;;;;11.00;8.90;;;18.90;94.80;;;;;;5053722;28;20056;-77
2021/07/04 04:34:35;;;;;;;11.00;8.13;;;18.90;94.80;;;;;;5052791;28;20473;-76
2021/07/04 04:37:01;;;;;;;12.10;9.05;;;19.00;94.80;;;;;;5052899;28;20102;-76
2021/07/04 04:39:27;;;;;;;11.98;9.27;;;19.00;94.70;;;;;;5035549;28;20032;-77
2021/07/04 04:41:52;;;;;;;13.30;8.82;;;19.00;94.70;;;;;;5052782;28;20029;-77
2021/07/04 04:44:18;;;;;;;11.20;9.02;;;18.90;94.70;;;;;;5052602;28;20033;-77
2021/07/04 04:46:44;;;;;;;12.25;9.07;;;19.00;94.70;;;;;;5059579;28;20032;-77
2021/07/04 04:49:10;;;;;;;15.35;9.57;;;19.00;95.00;;;;;;5093178;28;20537;-77
2021/07/04 04:51:40;;;;;;;12.63;9.23;;;19.00;94.70;;;;;;5092832;28;20022;-77
2021/07/04 04:54:06;;;;;;;12.40;8.23;;;19.00;94.70;;;;;;5091441;28;20125;-77
2021/07/04 04:56:32;;;;;;;12.45;9.52;;;19.00;94.70;;;;;;5092714;28;20070;-76
2021/07/04 04:58:59;;;;;;;9.45;7.55;;;19.10;94.70;;;;;;5093846;28;20024;-77
2021/07/04 05:01:28;;;;;;;10.85;8.73;;;19.10;94.70;;;;;;5092587;28;20035;-77
2021/07/04 05:03:57;;;;;;;10.57;8.45;;;19.10;94.60;;;;;;5092613;28;20084;-77
2021/07/04 05:06:23;;;;;;;10.77;8.48;;;19.10;94.60;;;;;;5092548;28;20576;-77
2021/07/04 05:08:50;;;;;;;11.60;9.10;;;19.10;94.60;;;;;;5075826;28;20499;-77
2021/07/04 05:11:15;;;;;;;13.55;8.95;;;19.10;94.60;;;;;;5092336;28;20015;-77
2021/07/04 05:13:41;;;;;;;11.65;9.23;;;19.10;94.50;;;;;;5093634;28;20032;-77
2021/07/04 05:16:07;;;;;;;12.65;9.07;;;19.10;94.50;;;;;;5092314;28;20031;-77
2021/07/04 05:18:34;;;;;;;12.55;9.27;;;19.10;94.50;;;;;;5093893;28;20073;-77
2021/07/04 05:21:00;;;;;;;12.57;9.93;;;19.10;94.70;;;;;;5092386;28;20032;-77
2021/07/04 05:23:26;;;;;;;12.30;9.68;;;19.10;94.50;;;;;;5092471;28;20039;-77
2021/07/04 05:25:55;;;;;;;12.70;9.45;;;19.20;94.50;;;;;;5093551;28;20024;-77
2021/07/04 05:28:21;;;;;;;12.00;9.43;;;19.20;94.50;;;;;;5076024;28;20020;-77
2021/07/04 05:30:47;;;;;;;12.32;9.57;;;19.20;94.50;;;;;;5091759;28;20032;-77
2021/07/04 05:33:13;;;;;;;12.73;10.05;;;19.20;94.50;;;;;;5093042;28;20090;-77
2021/07/04 05:35:39;;;;;;;14.15;11.32;;;19.20;94.50;;;;;;5092218;28;20030;-78
2021/07/04 05:38:05;;;;;;;13.43;10.50;;;19.20;94.40;;;;;;5075114;28;20115;-77
2021/07/04 05:40:31;;;;;;;15.68;11.75;;;19.20;94.40;;;;;;5091750;28;20020;-77
2021/07/04 05:42:57;;;;;;;18.17;13.73;;;19.30;94.30;;;;;;5091804;28;20024;-78
2021/07/04 05:45:26;;;;;;;18.27;13.05;;;19.20;94.20;;;;;;5074842;28;20388;-78
2021/07/04 05:47:52;;;;;;;17.45;13.55;;;19.30;94.10;;;;;;5091969;28;20108;-77
2021/07/04 05:50:18;;;;;;;17.10;13.40;;;19.20;94.10;;;;;;5091800;28;20061;-77
2021/07/04 05:52:45;;;;;;;18.08;13.43;;;19.20;94.10;;;;;;5093017;28;20485;-78
2021/07/04 05:55:12;;;;;;;20.05;14.68;;;19.20;94.10;;;;;;5092958;28;20023;-78
2021/07/04 05:57:38;;;;;;;19.58;13.98;;;19.10;94.10;;;;;;5091885;28;20540;-78
2021/07/04 06:00:06;;;;;;;20.45;13.85;;;19.20;94.20;;;;;;5093064;28;20103;-78
2021/07/04 06:02:32;;;;;;;20.52;14.43;;;19.20;94.10;;;;;;5091730;28;20027;-78
2021/07/04 06:04:57;;;;;;;19.88;14.45;;;19.20;94.10;;;;;;5091638;28;20020;-79
2021/07/04 06:07:23;;;;;;;20.83;14.88;;;19.20;94.20;;;;;;5091949;28;20181;-79
2021/07/04 06:09:49;;;;;;;21.98;15.82;;;19.20;94.20;;;;;;5091722;28;20126;-78
2021/07/04 06:12:15;;;;;;;23.08;16.67;;;19.30;94.20;;;;;;5091788;28;20040;-79
2021/07/04 06:14:41;;;;;;;23.83;16.05;;;19.40;94.20;;;;;;5091854;28;20472;-78
2021/07/04 06:17:07;;;;;;;26.02;19.00;;;19.50;94.20;;;;;;5075242;28;20111;-78
2021/07/04 06:19:32;;;;;;;28.95;20.75;;;19.60;94.10;;;;;;5091537;28;20016;-78
2021/07/04 06:21:58;;;;;;;28.65;21.83;;;19.70;94.10;;;;;;5092756;28;20073;-80
2021/07/04 06:24:23;;;;;;;31.40;23.83;;;19.70;93.80;;;;;;5091559;28;20027;-78
2021/07/04 06:26:49;;;;;;;31.65;23.35;;;19.70;93.60;;;;;;5091652;28;20020;-78
2021/07/04 06:29:16;;;;;;;29.88;22.70;;;19.70;93.50;;;;;;5091625;28;20132;-79
2021/07/04 06:31:41;;;;;;;28.23;20.77;;;19.70;93.50;;;;;;5091657;28;20438;-79
2021/07/04 06:34:07;;;;;;;29.63;22.27;;;19.70;93.50;;;;;;5091691;28;20058;-78
2021/07/04 06:36:33;;;;;;;35.03;24.17;;;19.80;93.40;;;;;;5074741;28;20031;-78
2021/07/04 06:38:58;;;;;;;36.33;26.88;;;19.80;93.20;;;;;;5091568;28;20107;-78
2021/07/04 06:41:25;;;;;;;34.35;27.30;;;19.90;93.20;;;;;;5091819;28;20519;-78
2021/07/04 06:43:51;;;;;;;33.13;24.42;;;19.90;93.40;;;;;;5091501;28;20024;-81
2021/07/04 06:46:16;;;;;;;34.35;24.77;;;19.90;93.10;;;;;;5074791;28;20024;-80
2021/07/04 06:48:43;;;;;;;31.38;24.50;;;20.00;93.10;;;;;;5074773;28;20039;-80
2021/07/04 06:51:09;;;;;;;33.92;24.65;;;20.10;93.00;;;;;;5091321;28;20039;-82
2021/07/04 06:53:35;;;;;;;32.40;24.92;;;20.20;92.90;;;;;;5092999;28;20021;-82
2021/07/04 06:56:01;;;;;;;32.05;24.75;;;20.30;92.90;;;;;;5091533;28;20119;-81
2021/07/04 06:58:33;;;;;;;32.08;25.85;;;20.40;92.80;;;;;;5091445;28;20047;-81
2021/07/04 07:00:59;;;;;;;29.60;23.50;;;20.40;92.50;;;;;;5074500;28;20033;-81
2021/07/04 07:03:24;;;;;;;27.58;23.15;;;20.40;92.50;;;;;;5096374;28;20028;-80
2021/07/04 07:05:50;;;;;;;32.45;26.23;;;20.50;92.40;;;;;;5096408;28;20028;-80
2021/07/04 07:08:16;;;;;;;35.97;27.70;;;20.50;92.30;;;;;;5078186;28;20063;-80
2021/07/04 07:10:41;;;;;;;33.45;27.45;;;20.60;92.30;;;;;;5095082;28;20162;-80
2021/07/04 07:13:07;;;;;;;28.98;24.00;;;20.70;92.30;;;;;;5096201;28;20028;-82
2021/07/04 07:15:33;;;;;;;31.25;24.27;;;20.70;92.10;;;;;;5078266;28;20127;-78
2021/07/04 07:17:59;;;;;;;31.70;25.70;;;20.70;91.90;;;;;;5096161;28;20027;-77
2021/07/04 07:20:24;;;;;;;34.35;25.40;;;20.70;91.70;;;;;;5094680;28;20567;-78
2021/07/04 07:22:51;;;;;;;34.35;26.17;;;20.60;91.60;;;;;;5096155;28;20490;-78
2021/07/04 07:25:17;;;;;;;33.22;25.80;;;20.50;91.50;;;;;;5096022;28;20081;-78
2021/07/04 07:27:43;;;;;;;37.45;27.45;;;20.50;91.50;;;;;;5078739;28;20111;-82
2021/07/04 07:30:11;;;;;;;31.95;24.98;;;20.50;91.30;;;;;;5098258;28;20489;-81
2021/07/04 07:32:37;;;;;;;35.65;25.63;;;20.50;91.30;;;;;;5097693;28;20391;-82
2021/07/04 07:35:08;;;;;;;33.20;24.10;;;20.60;91.20;;;;;;5096331;28;20038;-81
2021/07/04 07:37:35;;;;;;;29.88;22.40;;;20.70;91.10;;;;;;5078938;28;20549;-83
2021/07/04 07:40:02;;;;;;;29.33;23.65;;;20.70;90.90;;;;;;5095654;28;20024;-82
2021/07/04 07:42:30;;;;;;;29.90;22.92;;;20.80;90.90;;;;;;5096142;28;20498;-82
2021/07/04 07:44:55;;;;;;;30.15;22.50;;;20.80;90.70;;;;;;5095679;28;20107;-82
2021/07/04 07:47:21;;;;;;;30.70;24.55;;;20.90;90.60;;;;;;5094465;28;20071;-82
2021/07/04 07:49:47;;;;;;;28.67;22.95;;;21.00;90.60;;;;;;5077394;28;20024;-83
2021/07/04 07:52:14;;;;;;;32.70;25.52;;;21.10;90.60;;;;;;5094033;28;20123;-82
2021/07/04 07:54:39;;;;;;;30.98;23.92;;;21.20;90.50;;;;;;5077369;28;20537;-83
2021/07/04 07:57:07;;;;;;;31.35;23.85;;;21.30;90.50;;;;;;5094040;28;20059;-83
2021/07/04 07:59:33;;;;;;;32.15;24.25;;;21.30;90.20;;;;;;5095540;28;20020;-83
2021/07/04 08:01:59;;;;;;;32.10;23.83;;;21.30;90.10;;;;;;5093935;28;20039;-83
2021/07/04 08:04:26;;;;;;;28.92;23.98;;;21.40;90.00;;;;;;5095271;28;20048;-83
2021/07/04 08:06:51;;;;;;;27.65;22.55;;;21.40;89.70;;;;;;5093841;28;20016;-83
2021/07/04 08:09:17;;;;;;;28.75;22.20;;;21.40;89.50;;;;;;5077246;28;20082;-81
2021/07/04 08:11:43;;;;;;;27.10;21.02;;;21.50;89.50;;;;;;5093667;28;20395;-80
2021/07/04 08:14:09;;;;;;;29.02;22.05;;;21.50;89.60;;;;;;5092659;28;20379;-80
2021/07/04 08:16:35;;;;;;;28.40;20.23;;;21.60;89.30;;;;;;5094929;28;20032;-82
2021/07/04 08:19:00;;;;;;;26.33;21.00;;;21.70;88.80;;;;;;5077258;28;20023;-80
2021/07/04 08:21:30;;;;;;;28.67;22.05;;;21.80;89.20;;;;;;5093764;28;20068;-80
2021/07/04 08:23:56;;;;;;;26.55;21.63;;;21.90;88.30;;;;;;5093956;28;20039;-80
2021/07/04 08:26:23;;;;;;;27.88;20.27;;;22.00;88.00;;;;;;5094994;28;20480;-80
2021/07/04 08:28:49;;;;;;;25.67;21.23;;;22.10;87.20;;;;;;5093464;28;20557;-81
2021/07/04 08:31:14;;;;;;;29.73;21.20;;;22.20;86.50;;;;;;5093362;28;20067;-81
2021/07/04 08:33:40;;;;;;;26.65;20.10;;;22.20;85.80;;;;;;5093311;28;20058;-81
2021/07/04 08:36:06;;;;;;;27.23;20.48;;;22.20;85.40;;;;;;5093530;28;20055;-81
2021/07/04 08:38:32;;;;;;;23.88;18.50;;;22.30;85.40;;;;;;5093235;28;20016;-81
2021/07/04 08:40:58;;;;;;;24.92;19.25;;;22.30;85.30;;;;;;5076561;28;20426;-81
2021/07/04 08:43:32;;;;;;;24.75;19.95;;;22.50;84.90;;;;;;5076505;28;20028;-81
2021/07/04 08:45:59;;;;;;;26.60;18.92;;;22.50;84.30;;;;;;5093197;28;20023;-81
2021/07/04 08:48:25;;;;;;;25.10;18.85;;;22.60;83.90;;;;;;5076210;28;20486;-82
2021/07/04 08:50:51;;;;;;;22.55;16.98;;;22.70;83.60;;;;;;5076171;28;20146;-81
2021/07/04 08:53:18;;;;;;;21.70;17.90;;;22.80;83.50;;;;;;5076381;28;20383;-81
2021/07/04 08:55:45;;;;;;;21.75;16.70;;;22.90;83.30;;;;;;5093091;28;20032;-82
2021/07/04 08:58:11;;;;;;;20.63;17.63;;;22.90;83.20;;;;;;5076294;28;20431;-81
2021/07/04 09:00:38;;;;;;;22.98;18.45;;;23.00;82.90;;;;;;5094093;28;20476;-82
2021/07/04 09:03:23;;;;;;;23.67;19.40;;;23.00;82.30;;;;;;5092973;28;20464;-82
2021/07/04 09:05:49;;;;;;;22.42;18.55;;;23.00;81.60;;;;;;5093314;28;20436;-82
2021/07/04 09:08:22;;;;;;;19.13;16.95;;;23.10;81.70;;;;;;5076034;28;20510;-82
2021/07/04 09:11:16;;;;;;;22.17;18.02;;;23.20;82.10;;;;;;5092896;28;20065;-82
2021/07/04 09:13:44;;;;;;;19.55;16.58;;;23.40;81.00;;;;;;5092788;28;20043;-83
2021/07/04 09:16:13;;;;;;;20.83;16.70;;;23.60;80.40;;;;;;5094089;28;20024;-83
2021/07/04 09:18:39;;;;;;;21.63;17.40;;;23.60;79.60;;;;;;5092571;28;20376;-83
2021/07/04 09:21:23;;;;;;;21.40;16.55;;;23.80;79.60;;;;;;5093621;28;20053;-82
2021/07/04 09:23:49;;;;;;;;;;;23.90;78.40;;;;;;5093983;28;20497;-76
2021/07/04 09:26:40;;;;;;;18.83;15.10;;;24.10;78.50;;;;;;5092405;28;20368;-76
2021/07/04 09:29:09;;;;;;;18.40;14.57;;;24.10;78.00;;;;;;5075419;28;20024;-76
2021/07/04 09:31:35;;;;;;;23.00;15.38;;;24.20;77.70;;;;;;5075533;28;20081;-76
2021/07/04 09:34:12;;;;;;;19.23;14.65;;;24.30;77.30;;;;;;5075626;28;20028;-76
2021/07/04 09:36:39;;;;;;;17.73;14.82;;;24.40;76.60;;;;;;5092291;28;20081;-75
2021/07/04 09:39:17;;;;;;;20.40;16.15;;;24.50;76.20;;;;;;5075281;28;20016;-75
2021/07/04 09:42:09;;;;;;;19.42;16.27;;;24.50;75.50;;;;;;5092065;28;20102;-75
2021/07/04 09:44:37;;;;;;;19.38;14.80;;;24.60;74.70;;;;;;5093184;28;20020;-75
2021/07/04 09:47:19;;;;;;;20.73;16.60;;;24.70;74.80;;;;;;5091887;28;20115;-74
2021/07/04 09:49:47;;;;;;;18.80;15.43;;;24.70;74.20;;;;;;5092305;28;20032;-73
2021/07/04 09:52:22;;;;;;;23.42;17.10;;;24.80;73.50;;;;;;5075178;28;20476;-73
2021/07/04 09:55:00;;;;;;;21.05;16.70;;;24.70;73.00;;;;;;5076870;28;20480;-73
2021/07/04 09:57:28;;;;;;;19.65;16.00;;;24.70;73.20;;;;;;5093335;28;20028;-73
2021/07/04 10:00:13;;;;;;;20.08;16.48;;;24.70;72.50;;;;;;5093142;28;20426;-73
2021/07/04 10:02:39;;;;;;;20.60;16.60;;;24.70;72.10;;;;;;5093238;28;20031;-73
2021/07/04 10:05:12;;;;;;;19.52;15.13;;;24.70;72.40;;;;;;5092042;28;20118;-73
2021/07/04 10:07:38;;;;;;;20.30;14.90;;;24.60;72.40;;;;;;5093166;28;20069;-73
2021/07/04 10:10:04;;;;;;;21.25;16.40;;;24.70;72.40;;;;;;5092032;28;20380;-73
2021/07/04 10:12:29;;;;;;;18.75;13.82;;;24.80;72.40;;;;;;5075053;28;20537;-73
2021/07/04 10:14:55;;;;;;;19.35;14.93;;;24.90;72.70;;;;;;5091974;28;20020;-72
2021/07/04 10:17:26;;;;;;;17.70;15.63;;;25.20;72.60;;;;;;5093046;28;20161;-73
2021/07/04 10:19:53;;;;;;;19.15;13.95;;;25.40;72.30;;;;;;5091933;28;20110;-73
2021/07/04 10:22:20;;;;;;;16.45;12.57;;;25.60;72.00;;;;;;5092984;28;20047;-72
2021/07/04 10:24:47;;;;;;;16.23;12.63;;;25.70;71.30;;;;;;5074889;28;20067;-74
2021/07/04 10:27:14;;;;;;;15.82;12.48;;;25.90;70.60;;;;;;5093085;28;20037;-72
2021/07/04 10:29:41;;;;;;;15.40;12.23;;;26.00;70.00;;;;;;5092939;28;20035;-72
2021/07/04 10:32:09;;;;;;;14.82;11.35;;;26.10;69.20;;;;;;5092684;28;20054;-72
2021/07/04 10:34:46;;;;;;;11.82;9.63;;;26.20;68.50;;;;;;5091694;28;20016;-72
2021/07/04 10:37:13;;;;;;;13.13;10.90;;;26.30;67.60;;;;;;5095222;28;20048;-72
2021/07/04 10:39:40;;;;;;;13.95;11.02;;;26.30;67.00;;;;;;5096830;28;20020;-72
2021/07/04 10:42:11;;;;;;;13.18;10.40;;;26.50;66.30;;;;;;5096701;28;20089;-72
2021/07/04 10:44:50;;;;;;;13.80;11.18;;;26.50;65.60;;;;;;5096838;28;20032;-72
2021/07/04 10:47:19;;;;;;;13.55;10.90;;;26.50;64.90;;;;;;5096673;28;20049;-72
2021/07/04 10:50:05;;;;;;;15.00;10.73;;;26.40;64.90;;;;;;5096767;28;20035;-72
2021/07/04 10:52:31;;;;;;;13.77;11.63;;;26.40;65.10;;;;;;5094382;28;20093;-73
2021/07/04 10:54:58;;;;;;;13.50;9.68;;;26.30;64.50;;;;;;5095296;28;20418;-73
2021/07/04 10:57:30;;;;;;;12.80;10.00;;;26.40;64.50;;;;;;5096483;28;20024;-72
2021/07/04 11:00:02;;;;;;;12.80;9.65;;;26.60;64.70;;;;;;5096357;28;20027;-72
2021/07/04 11:02:49;;;;;;;14.80;10.70;;;26.90;64.70;;;;;;5096379;28;20085;-72
2021/07/04 11:05:40;;;;;;;13.80;10.02;;;27.30;63.70;;;;;;5095147;28;20118;-72
2021/07/04 11:08:10;;;;;;;14.63;10.55;;;27.50;63.50;;;;;;5096285;28;20099;-72
2021/07/04 11:10:38;;;;;;;11.57;9.68;;;27.60;62.60;;;;;;5096136;28;20032;-72
2021/07/04 11:13:06;;;;;;;13.90;10.55;;;27.50;61.90;;;;;;5096173;28;20043;-72
2021/07/04 11:15:33;;;;;;;14.48;11.23;;;27.40;61.30;;;;;;5094770;28;20028;-72
2021/07/04 11:18:06;;;;;;;12.25;9.88;;;27.30;61.20;;;;;;5094846;28;20537;-73
2021/07/04 11:20:38;;;;;;;13.95;10.98;;;27.10;61.30;;;;;;5095981;28;20020;-72
2021/07/04 11:23:04;;;;;;;13.65;10.57;;;27.10;61.60;;;;;;5094797;28;20564;-72
2021/07/04 11:25:53;;;;;;;14.40;11.35;;;27.00;61.60;;;;;;5095784;28;20099;-72
2021/07/04 11:28:30;;;;;;;13.18;10.57;;;27.00;61.50;;;;;;5094564;28;20024;-72
2021/07/04 11:31:05;;;;;;;13.07;10.00;;;27.00;61.70;;;;;;5095555;28;20075;-74
2021/07/04 11:33:39;;;;;;;14.85;10.05;;;27.10;61.80;;;;;;5095603;28;20491;-72
2021/07/04 11:36:17;;;;;;;13.95;9.68;;;27.20;61.40;;;;;;5094344;28;20070;-72
2021/07/04 11:38:55;;;;;;;12.10;9.70;;;27.40;61.30;;;;;;5095531;28;20035;-72
2021/07/04 11:41:27;;;;;;;14.95;8.60;;;27.80;61.20;;;;;;5094389;28;20020;-73
2021/07/04 11:43:59;;;;;;;11.85;8.30;;;28.20;60.70;;;;;;5095354;28;20118;-73
2021/07/04 11:46:26;;;;;;;9.77;7.70;;;28.70;60.20;;;;;;5095440;28;20028;-72
2021/07/04 11:49:03;;;;;;;9.45;6.38;;;29.20;59.30;;;;;;5095273;28;20067;-73
2021/07/04 11:51:47;;;;;;;8.32;6.10;;;29.60;57.70;;;;;;5095280;28;20497;-72
2021/07/04 11:54:27;;;;;;;5.43;4.30;;;30.00;54.50;;;;;;5095384;28;20016;-72
2021/07/04 11:59:54;;;;;;;8.80;6.10;;;30.00;52.50;;;;;;5095465;28;20181;-72
2021/07/04 12:02:20;;;;;;;9.43;6.88;;;30.00;52.80;;;;;;5070158;28;20033;-72
2021/07/04 12:04:45;;;;;;;9.77;8.02;;;30.10;52.90;;;;;;5054187;28;20032;-72
2021/07/04 12:07:16;;;;;;;12.05;7.93;;;30.20;52.60;;;;;;5053854;28;20510;-73
2021/07/04 12:09:47;;;;;;;9.30;6.82;;;30.30;52.20;;;;;;5053715;28;20028;-73
2021/07/04 12:12:13;;;;;;;8.93;6.38;;;30.40;51.60;;;;;;5053536;28;20071;-72
2021/07/04 12:14:40;;;;;;;7.28;5.65;;;30.40;51.20;;;;;;5070133;28;20028;-72
2021/07/04 12:17:14;;;;;;;8.85;6.22;;;30.30;51.00;;;;;;5069091;28;20569;-73
2021/07/04 12:19:41;;;;;;;7.65;5.30;;;30.30;50.20;;;;;;5054703;28;20469;-72
2021/07/04 12:22:12;;;;;;;8.30;5.18;;;30.20;50.60;;;;;;5054267;28;20488;-72
2021/07/04 12:24:41;;;;;;;8.15;5.63;;;30.30;50.50;;;;;;5069669;28;20028;-72
2021/07/04 12:27:07;;;;;;;7.80;5.05;;;30.40;50.20;;;;;;5054551;28;20019;-73
2021/07/04 12:29:59;;;;;;;7.93;5.90;;;30.50;49.90;;;;;;5053234;28;20037;-72
2021/07/04 12:32:25;;;;;;;7.40;5.82;;;30.40;49.70;;;;;;5054065;28;20041;-72
2021/07/04 12:34:51;;;;;;;7.32;4.82;;;30.30;50.10;;;;;;5054336;28;20029;-72
2021/07/04 12:37:16;;;;;;;6.47;4.15;;;30.20;49.90;;;;;;5054292;28;20036;-73
2021/07/04 12:39:46;;;;;;;7.13;4.50;;;30.20;49.60;;;;;;5053168;28;20029;-72
2021/07/04 12:42:25;;;;;;;6.95;4.82;;;30.20;49.50;;;;;;5053141;28;20071;-73